Time;durP1;ratioP1;P1;durP2;ratioP2;P2;SDS_P1;SDS_P2;PMS_P1;PMS_P2;Temp;Humidity;BMP_temperature;BMP_pressure;BME280_temperature;BME280_humidity;BME280_pressure;Samples;Min_cycle;Max_cycle;Signal;HPM_P1;HPM_P2
2022/01/06 00:00:23;;;;;;;25.52;8.18;;;;;;;2.18;92.89;101434.28;4995601;28;20026;-55
2022/01/06 00:02:48;;;;;;;23.20;7.68;;;;;;;2.18;92.67;101436.16;4993694;28;20389;-55
2022/01/06 00:05:14;;;;;;;25.40;8.73;;;;;;;2.15;93.13;101444.84;4993840;28;20026;-55
2022/01/06 00:07:39;;;;;;;20.45;8.20;;;;;;;2.13;92.74;101433.31;4994769;28;20026;-54
2022/01/06 00:10:07;;;;;;;23.70;8.05;;;;;;;2.10;92.61;101431.03;4994509;28;20049;-55
2022/01/06 00:12:44;;;;;;;22.92;9.20;;;;;;;2.08;93.07;101434.00;4994644;28;20058;-55
2022/01/06 00:25:37;;;;;;;28.35;9.00;;;;;;;2.06;92.32;101449.78;4994940;28;20058;-55
2022/01/06 00:28:02;;;;;;;24.33;9.60;;;;;;;2.02;92.30;101457.63;4994100;28;20548;-55
2022/01/06 00:30:28;;;;;;;26.27;9.90;;;;;;;1.97;91.82;101462.97;4994296;28;20026;-55
2022/01/06 00:32:54;;;;;;;27.20;9.27;;;;;;;1.92;92.58;101460.06;4993930;28;20478;-54
2022/01/06 00:35:19;;;;;;;28.58;10.10;;;;;;;1.95;92.44;101467.81;4994688;28;20038;-55
2022/01/06 00:37:44;;;;;;;30.42;9.77;;;;;;;1.90;92.69;101461.38;4994030;28;20023;-55
2022/01/06 00:40:10;;;;;;;25.25;9.52;;;;;;;1.89;92.50;101471.44;4994090;28;20097;-54
2022/01/06 00:42:35;;;;;;;24.13;9.30;;;;;;;1.84;92.50;101457.69;4994160;28;20289;-54
2022/01/06 00:45:01;;;;;;;25.08;9.88;;;;;;;1.88;92.75;101467.09;4994380;28;20038;-55
2022/01/06 00:47:26;;;;;;;26.67;9.38;;;;;;;1.86;92.93;101471.94;4994241;28;20114;-55
2022/01/06 00:49:51;;;;;;;27.20;9.70;;;;;;;1.86;92.95;101469.19;4994087;28;20511;-55
2022/01/06 00:52:17;;;;;;;26.73;9.57;;;;;;;1.90;93.09;101464.09;4993778;28;20041;-54
2022/01/06 00:54:42;;;;;;;25.50;9.15;;;;;;;1.89;92.99;101466.00;4994266;28;20473;-57
2022/01/06 00:57:07;;;;;;;24.27;9.45;;;;;;;1.89;93.16;101467.91;4993509;28;20030;-55
2022/01/06 00:59:32;;;;;;;20.90;8.65;;;;;;;1.91;93.05;101472.06;4994071;28;20026;-57
2022/01/06 01:01:58;;;;;;;23.75;8.80;;;;;;;1.92;93.36;101472.91;4993929;28;20027;-56
2022/01/06 01:04:23;;;;;;;18.13;7.75;;;;;;;1.89;92.51;101473.34;4994225;28;20029;-56
2022/01/06 01:06:48;;;;;;;23.90;7.85;;;;;;;1.86;92.63;101480.94;4993771;28;20030;-55
2022/01/06 01:09:14;;;;;;;21.60;7.85;;;;;;;1.79;92.78;101471.19;4993128;28;20022;-55
2022/01/06 01:11:39;;;;;;;22.40;8.43;;;;;;;1.75;93.41;101472.72;4993342;28;20053;-55
2022/01/06 01:14:18;;;;;;;21.77;8.30;;;;;;;1.71;93.12;101475.91;4993222;28;20030;-55
2022/01/06 01:16:53;;;;;;;22.98;8.25;;;;;;;1.66;92.84;101481.22;4993831;28;20024;-55
2022/01/06 01:19:19;;;;;;;23.00;8.32;;;;;;;1.64;93.98;101472.44;4993907;28;20117;-55
2022/01/06 01:21:45;;;;;;;24.08;8.80;;;;;;;1.60;93.51;101482.16;4993524;28;20058;-55
2022/01/06 01:24:10;;;;;;;28.67;9.55;;;;;;;1.56;93.74;101489.94;4993340;28;20026;-55
2022/01/06 01:26:35;;;;;;;24.15;8.90;;;;;;;1.55;93.62;101490.19;4993631;28;20438;-55
2022/01/06 01:29:01;;;;;;;24.88;9.73;;;;;;;1.55;93.83;101487.44;4993952;28;20033;-56
2022/01/06 01:31:30;;;;;;;26.38;9.48;;;;;;;1.49;93.73;101483.75;4992777;28;20030;-55
2022/01/06 01:33:58;;;;;;;29.15;10.43;;;;;;;1.54;94.08;101489.38;4994069;28;20019;-55
2022/01/06 01:36:25;;;;;;;27.98;10.15;;;;;;;1.53;93.71;101495.03;4993277;28;20046;-55
2022/01/06 01:38:50;;;;;;;28.73;10.55;;;;;;;1.51;93.96;101502.63;4993658;28;20402;-56
2022/01/06 01:41:16;;;;;;;30.45;10.98;;;;;;;1.50;93.72;101499.06;4993176;28;20041;-55
2022/01/06 01:43:42;;;;;;;28.80;11.52;;;;;;;1.46;93.73;101497.88;4993543;28;20437;-55
2022/01/06 01:46:11;;;;;;;26.77;9.52;;;;;;;1.49;93.64;101510.19;4993256;28;20033;-55
2022/01/06 01:48:40;;;;;;;22.70;8.95;;;;;;;1.44;93.93;101512.75;4993736;28;20022;-55
2022/01/06 01:51:08;;;;;;;25.08;9.00;;;;;;;1.41;93.71;101524.97;4993158;28;20074;-55
2022/01/06 01:53:36;;;;;;;27.75;9.77;;;;;;;1.40;93.63;101528.75;4992778;28;20057;-55
2022/01/06 01:56:05;;;;;;;26.45;9.48;;;;;;;1.39;93.40;101535.25;4993268;28;20153;-55
2022/01/06 01:58:30;;;;;;;26.75;9.65;;;;;;;1.36;93.75;101544.72;4993467;28;20026;-57
2022/01/06 02:00:55;;;;;;;25.80;9.38;;;;;;;1.39;93.97;101544.28;4993136;28;20026;-55
2022/01/06 02:03:20;;;;;;;24.15;9.38;;;;;;;1.36;94.03;101544.72;4993173;28;20023;-55
2022/01/06 02:05:46;;;;;;;28.08;9.68;;;;;;;1.35;93.60;101547.69;4992949;28;20030;-53
2022/01/06 02:08:11;;;;;;;27.77;10.60;;;;;;;1.35;93.60;101547.69;4993440;28;20030;-55
2022/01/06 02:10:36;;;;;;;26.65;10.35;;;;;;;1.35;93.76;101551.25;4993001;28;20029;-54
2022/01/06 02:13:03;;;;;;;26.20;10.15;;;;;;;1.32;93.41;101556.31;4993328;28;20029;-54
2022/01/06 02:15:29;;;;;;;27.08;9.75;;;;;;;1.29;93.46;101556.75;4993418;28;20030;-53
2022/01/06 02:17:54;;;;;;;25.42;9.40;;;;;;;1.29;93.50;101562.22;4992866;28;20081;-54
2022/01/06 02:20:21;;;;;;;22.60;8.40;;;;;;;1.18;93.54;101547.44;4992008;28;20100;-55
2022/01/06 02:22:49;;;;;;;24.58;9.10;;;;;;;1.19;94.44;101549.94;4993434;28;20529;-55
2022/01/06 02:25:15;;;;;;;24.52;8.90;;;;;;;1.22;93.80;101556.84;4993179;28;20023;-53
2022/01/06 02:27:43;;;;;;;23.35;9.00;;;;;;;1.17;93.93;101562.13;4996783;28;20066;-53
2022/01/06 02:30:09;;;;;;;26.58;9.15;;;;;;;1.16;94.24;101557.75;4997209;28;20038;-54
2022/01/06 02:32:34;;;;;;;28.13;9.95;;;;;;;1.15;94.01;101556.06;4997026;28;20030;-56
2022/01/06 02:35:08;;;;;;;22.27;8.98;;;;;;;1.07;93.82;101559.94;4995532;28;20029;-54
2022/01/06 02:37:34;;;;;;;24.20;9.95;;;;;;;1.09;94.52;101563.25;4996984;28;20035;-54
2022/01/06 02:39:59;;;;;;;23.38;8.45;;;;;;;1.06;94.41;101559.09;4995969;28;20034;-54
2022/01/06 02:42:25;;;;;;;20.75;8.52;;;;;;;1.05;93.85;101568.31;4996473;28;20026;-52
2022/01/06 02:44:50;;;;;;;23.20;8.55;;;;;;;1.01;94.30;101564.41;4996696;28;20033;-54
2022/01/06 02:47:16;;;;;;;27.63;8.75;;;;;;;1.01;94.48;101567.13;4996723;28;20029;-55
2022/01/06 02:49:41;;;;;;;22.27;8.20;;;;;;;0.99;94.65;101562.97;4996625;28;20034;-55
2022/01/06 02:52:07;;;;;;;26.88;9.10;;;;;;;0.95;94.65;101556.28;4996377;28;20030;-55
2022/01/06 02:54:32;;;;;;;22.58;8.43;;;;;;;0.92;94.66;101558.38;4996500;28;20379;-55
2022/01/06 02:56:57;;;;;;;22.92;8.80;;;;;;;0.89;95.11;101555.28;4996173;28;20109;-55
2022/01/06 02:59:23;;;;;;;27.05;10.40;;;;;;;0.87;94.55;101558.22;4996003;28;20366;-55
2022/01/06 03:01:48;;;;;;;27.83;9.25;;;;;;;0.84;95.07;101558.66;4996158;28;20041;-57
2022/01/06 03:04:14;;;;;;;24.73;9.07;;;;;;;0.84;94.96;101563.31;4995834;28;20019;-55
2022/01/06 03:06:40;;;;;;;25.02;9.32;;;;;;;0.83;95.35;101565.16;4996065;28;20034;-54
2022/01/06 03:09:06;;;;;;;26.10;9.57;;;;;;;0.83;95.04;101565.16;4995202;28;20401;-55
2022/01/06 03:11:33;;;;;;;25.98;10.07;;;;;;;0.82;95.32;101563.50;4995181;28;20035;-57
2022/01/06 03:13:59;;;;;;;26.45;10.07;;;;;;;0.75;95.43;101555.41;4995354;28;20374;-55
2022/01/06 03:16:24;;;;;;;25.92;10.10;;;;;;;0.80;95.42;101570.22;4995555;28;20093;-54
2022/01/06 03:18:50;;;;;;;26.08;10.55;;;;;;;0.81;95.71;101574.63;4995466;28;20034;-54
2022/01/06 03:21:15;;;;;;;26.50;8.90;;;;;;;0.78;95.62;101568.56;4995691;28;20071;-56
2022/01/06 03:23:40;;;;;;;27.67;8.77;;;;;;;0.82;95.55;101581.75;4995130;28;20084;-55
2022/01/06 03:26:06;;;;;;;25.80;8.70;;;;;;;0.78;95.05;101574.00;4995336;28;20026;-55
2022/01/06 03:28:32;;;;;;;30.23;10.90;;;;;;;0.81;95.09;101580.91;4995369;28;20367;-55
2022/01/06 03:30:57;;;;;;;28.17;9.77;;;;;;;0.80;95.25;101581.13;4995049;28;20033;-56
2022/01/06 03:33:23;;;;;;;22.50;8.52;;;;;;;0.82;95.26;101581.75;4995617;28;20264;-55
2022/01/06 03:35:48;;;;;;;24.75;9.82;;;;;;;0.81;95.11;101590.97;4995574;28;20034;-55
2022/01/06 03:38:14;;;;;;;24.58;9.18;;;;;;;0.83;94.63;101594.31;4995314;28;20134;-55
2022/01/06 03:40:40;;;;;;;25.08;9.23;;;;;;;0.84;95.28;101593.25;4995701;28;20022;-56
2022/01/06 03:43:06;;;;;;;25.20;8.38;;;;;;;0.83;94.95;101589.69;4994517;28;20034;-56
2022/01/06 03:45:32;;;;;;;26.77;9.65;;;;;;;0.82;94.73;101590.75;4995560;28;20026;-55
2022/01/06 03:47:58;;;;;;;25.23;9.90;;;;;;;0.81;94.88;101588.25;4995339;28;20049;-55
2022/01/06 03:50:23;;;;;;;26.02;9.00;;;;;;;0.79;94.92;101593.94;4995149;28;20027;-54
2022/01/06 03:52:49;;;;;;;28.27;9.10;;;;;;;0.78;95.40;101594.97;4995532;28;20066;-55
2022/01/06 03:55:17;;;;;;;26.08;8.80;;;;;;;0.72;94.97;101588.53;4995836;28;20105;-55
2022/01/06 03:57:43;;;;;;;27.85;8.45;;;;;;;0.70;95.11;101590.63;4994899;28;20041;-55
2022/01/06 04:00:11;;;;;;;23.45;8.98;;;;;;;0.68;95.00;101584.56;4995122;28;20019;-56
2022/01/06 04:02:36;;;;;;;25.42;9.57;;;;;;;0.64;95.11;101594.25;4995397;28;20084;-56
2022/01/06 04:05:03;;;;;;;27.90;10.27;;;;;;;0.62;95.04;101596.34;4993781;28;20034;-55
2022/01/06 04:07:29;;;;;;;27.40;10.27;;;;;;;0.62;94.81;101593.63;4995075;28;20045;-56
2022/01/06 04:09:54;;;;;;;23.35;11.05;;;;;;;0.60;95.50;101584.84;4995051;28;20023;-56
2022/01/06 04:12:19;;;;;;;31.35;10.23;;;;;;;0.58;95.27;101586.94;4994689;28;20026;-56
2022/01/06 04:14:46;;;;;;;27.23;9.25;;;;;;;0.57;95.31;101585.28;4994582;28;20037;-56
2022/01/06 04:17:11;;;;;;;25.55;9.70;;;;;;;0.55;95.39;101587.41;4994760;28;20034;-56
2022/01/06 04:19:36;;;;;;;29.40;9.23;;;;;;;0.53;94.83;101597.69;4995588;28;20110;-56
2022/01/06 04:22:04;;;;;;;23.75;9.32;;;;;;;0.42;94.95;101583.72;4994683;28;20026;-56
2022/01/06 04:24:29;;;;;;;23.55;8.80;;;;;;;0.45;95.47;101601.50;4994922;28;20030;-56
2022/01/06 04:26:54;;;;;;;26.55;9.43;;;;;;;0.44;95.28;101614.28;4994376;28;20029;-54
2022/01/06 04:29:20;;;;;;;24.02;9.20;;;;;;;0.41;95.65;101620.16;4994804;28;20030;-56
2022/01/06 04:31:45;;;;;;;28.05;10.70;;;;;;;0.41;95.77;101617.44;4994014;28;20044;-54
2022/01/06 04:34:10;;;;;;;25.50;9.98;;;;;;;0.44;96.02;101618.88;4993715;28;20042;-55
2022/01/06 04:36:36;;;;;;;24.00;9.73;;;;;;;0.44;95.85;101621.59;4994663;28;20080;-55
2022/01/06 04:39:01;;;;;;;25.77;9.70;;;;;;;0.42;95.60;101615.56;4993362;28;20030;-54
2022/01/06 04:41:26;;;;;;;24.80;9.25;;;;;;;0.44;96.30;101618.88;4994798;28;20585;-52
2022/01/06 04:43:51;;;;;;;23.23;8.88;;;;;;;0.46;95.95;101627.66;4994394;28;20030;-50
2022/01/06 04:46:19;;;;;;;23.98;10.38;;;;;;;0.44;95.69;101627.03;4994288;28;20026;-51
2022/01/06 04:48:44;;;;;;;24.23;9.35;;;;;;;0.43;96.33;101623.50;4993879;28;20030;-52
2022/01/06 04:51:09;;;;;;;24.77;8.55;;;;;;;0.44;96.24;101636.06;4994523;28;20118;-50
2022/01/06 04:53:35;;;;;;;22.55;8.43;;;;;;;0.44;96.39;101635.22;4994457;28;20043;-49
2022/01/06 04:56:00;;;;;;;23.02;8.00;;;;;;;0.43;95.97;101639.84;4994758;28;20030;-50
2022/01/06 04:58:27;;;;;;;23.15;8.90;;;;;;;0.42;96.42;101640.88;4993447;28;20502;-53
2022/01/06 05:00:52;;;;;;;18.92;7.55;;;;;;;0.42;95.62;101642.78;4993923;28;20141;-52
2022/01/06 05:03:17;;;;;;;24.88;7.82;;;;;;;0.40;95.77;101659.31;4993845;28;20054;-53
2022/01/06 05:05:43;;;;;;;22.88;8.27;;;;;;;0.40;96.25;101653.88;4994047;28;20037;-52
2022/01/06 05:08:08;;;;;;;19.60;7.72;;;;;;;0.40;95.56;101651.16;4994310;28;20034;-52
2022/01/06 05:10:33;;;;;;;21.42;8.25;;;;;;;0.35;95.15;101661.88;4994514;28;20390;-51
2022/01/06 05:12:58;;;;;;;24.38;9.38;;;;;;;0.37;96.04;101657.06;4993604;28;20109;-54
2022/01/06 05:15:24;;;;;;;20.58;8.32;;;;;;;0.35;95.49;101659.16;4993469;28;20056;-54
2022/01/06 05:17:49;;;;;;;20.92;8.77;;;;;;;0.36;96.02;101666.28;4993641;28;20053;-53
2022/01/06 05:20:14;;;;;;;21.67;7.97;;;;;;;0.35;95.85;101659.16;4993626;28;20054;-53
2022/01/06 05:22:45;;;;;;;21.50;8.10;;;;;;;0.35;95.69;101666.47;4993947;28;20673;-53
2022/01/06 05:25:12;;;;;;;23.63;8.70;;;;;;;0.30;95.58;101669.84;4994069;28;20056;-54
2022/01/06 05:27:37;;;;;;;22.92;8.38;;;;;;;0.26;95.59;101661.28;4993853;28;20080;-54
2022/01/06 05:30:04;;;;;;;21.92;7.60;;;;;;;0.24;95.84;101663.38;4993431;28;20449;-53
2022/01/06 05:32:30;;;;;;;23.05;8.23;;;;;;;0.23;95.68;101675.34;4993684;28;20080;-53
2022/01/06 05:34:55;;;;;;;23.60;8.55;;;;;;;0.22;95.43;101670.94;4993409;28;20030;-54
2022/01/06 05:37:20;;;;;;;22.52;8.50;;;;;;;0.22;95.98;101680.97;4993589;28;20567;-54
2022/01/06 05:39:45;;;;;;;20.83;7.97;;;;;;;0.23;96.18;101675.34;4993468;28;20057;-54
2022/01/06 05:42:13;;;;;;;21.58;9.05;;;;;;;0.22;95.92;101680.97;4993185;28;20505;-54
2022/01/06 05:44:42;;;;;;;24.15;9.30;;;;;;;0.23;96.13;101678.06;4993811;28;20026;-54
2022/01/06 05:47:07;;;;;;;18.25;8.50;;;;;;;0.23;96.27;101688.09;4993778;28;20478;-53
2022/01/06 05:49:33;;;;;;;24.45;8.43;;;;;;;0.20;95.74;101686.66;4993641;28;20041;-54
2022/01/06 05:51:58;;;;;;;22.30;8.77;;;;;;;0.19;95.79;101687.69;4993954;28;20026;-54
2022/01/06 05:54:24;;;;;;;24.75;8.35;;;;;;;0.20;96.00;101688.50;4993176;28;20058;-54
2022/01/06 05:56:49;;;;;;;21.95;8.13;;;;;;;0.16;95.49;101696.28;4993707;28;20069;-55
2022/01/06 05:59:14;;;;;;;21.63;8.05;;;;;;;0.14;95.91;101701.94;4993903;28;20030;-57
2022/01/06 06:01:40;;;;;;;20.83;8.20;;;;;;;0.14;96.10;101696.50;4995646;28;20038;-55
2022/01/06 06:04:05;;;;;;;21.15;8.90;;;;;;;0.12;96.02;101701.31;4997124;28;20061;-56
2022/01/06 06:06:30;;;;;;;23.63;9.43;;;;;;;0.04;96.18;101700.75;4996991;28;20026;-56
2022/01/06 06:08:55;;;;;;;23.58;7.97;;;;;;;0.06;96.21;101706.78;4996697;28;20109;-55
2022/01/06 06:11:20;;;;;;;22.25;9.20;;;;;;;0.05;96.28;101713.31;4996547;28;20401;-55
2022/01/06 06:13:46;;;;;;;21.67;8.75;;;;;;;0.03;96.48;101720.84;4996228;28;20023;-54
2022/01/06 06:16:11;;;;;;;24.13;9.15;;;;;;;-0.02;95.99;101719.56;4996222;28;20089;-53
2022/01/06 06:18:36;;;;;;;23.27;8.13;;;;;;;-0.03;96.67;101727.97;4996831;28;20022;-53
2022/01/06 06:21:02;;;;;;;20.45;9.50;;;;;;;-0.06;96.62;101726.50;4995991;28;20034;-54
2022/01/06 06:23:27;;;;;;;21.83;8.90;;;;;;;-0.07;96.71;101726.69;4996451;28;20117;-54
2022/01/06 06:25:52;;;;;;;22.17;8.73;;;;;;;-0.06;96.38;101726.50;4996187;28;20030;-54
2022/01/06 06:28:17;;;;;;;24.67;8.48;;;;;;;-0.08;96.75;101730.47;4996363;28;20058;-55
2022/01/06 06:30:43;;;;;;;25.42;8.77;;;;;;;-0.09;96.94;101731.50;4995633;28;20034;-54
2022/01/06 06:33:08;;;;;;;21.20;8.82;;;;;;;-0.09;96.81;101726.06;4995818;28;20030;-57
2022/01/06 06:35:33;;;;;;;21.48;8.20;;;;;;;-0.09;97.24;101739.66;4996535;28;20030;-55
2022/01/06 06:37:59;;;;;;;21.52;8.43;;;;;;;-0.11;96.91;101742.63;4996065;28;20172;-54
2022/01/06 06:40:24;;;;;;;22.45;8.23;;;;;;;-0.14;96.75;101742.22;4995877;28;20377;-55
2022/01/06 06:42:51;;;;;;;19.88;7.93;;;;;;;-0.16;97.37;101745.16;4996342;28;20500;-54
2022/01/06 06:45:17;;;;;;;21.83;8.25;;;;;;;-0.14;96.88;101736.78;4996274;28;20093;-55
2022/01/06 06:47:42;;;;;;;20.58;8.55;;;;;;;-0.13;97.12;101743.88;4995506;28;20105;-56
2022/01/06 06:50:08;;;;;;;20.98;8.35;;;;;;;-0.12;97.11;101751.00;4995589;28;20106;-55
2022/01/06 06:52:33;;;;;;;22.00;9.05;;;;;;;-0.13;96.62;101755.59;4995325;28;20049;-55
2022/01/06 06:54:59;;;;;;;21.70;8.63;;;;;;;-0.14;97.18;101756.63;4995438;28;20046;-57
2022/01/06 06:57:24;;;;;;;22.17;8.85;;;;;;;-0.14;96.88;101759.34;4995662;28;20030;-54
2022/01/06 06:59:50;;;;;;;21.45;8.25;;;;;;;-0.22;97.15;101743.25;4996449;28;20415;-55
2022/01/06 07:02:15;;;;;;;21.15;8.60;;;;;;;-0.16;96.95;101765.00;4995323;28;20558;-54
2022/01/06 07:04:40;;;;;;;20.55;8.80;;;;;;;-0.16;96.59;101773.16;4994916;28;20149;-57
2022/01/06 07:07:05;;;;;;;23.73;9.65;;;;;;;-0.15;97.05;101760.44;4995811;28;20500;-55
2022/01/06 07:09:31;;;;;;;23.90;8.85;;;;;;;-0.17;97.26;101771.50;4996805;28;20076;-56
2022/01/06 07:11:56;;;;;;;18.80;7.47;;;;;;;-0.18;97.17;101767.09;4994564;28;20046;-55
2022/01/06 07:14:21;;;;;;;22.98;8.63;;;;;;;-0.14;97.07;101775.66;4994979;28;20037;-55
2022/01/06 07:16:47;;;;;;;22.50;7.95;;;;;;;-0.17;96.68;101787.00;4994730;28;20405;-55
2022/01/06 07:19:12;;;;;;;18.58;8.65;;;;;;;-0.17;97.31;101785.09;4995340;28;20022;-55
2022/01/06 07:21:37;;;;;;;22.92;8.65;;;;;;;-0.19;97.30;101779.03;4995718;28;20037;-55
2022/01/06 07:24:03;;;;;;;21.08;8.43;;;;;;;-0.19;97.23;101789.09;4994850;28;20022;-55
2022/01/06 07:26:28;;;;;;;18.85;8.80;;;;;;;-0.20;97.37;101795.56;4995525;28;20029;-55
2022/01/06 07:28:53;;;;;;;20.65;7.78;;;;;;;-0.21;96.69;101802.91;4995117;28;20496;-56
2022/01/06 07:31:18;;;;;;;19.85;8.10;;;;;;;-0.21;97.23;101799.31;4995046;28;20022;-56
2022/01/06 07:33:44;;;;;;;21.33;8.77;;;;;;;-0.16;97.65;101800.38;4993840;28;20034;-56
2022/01/06 07:36:09;;;;;;;24.70;9.77;;;;;;;-0.15;97.37;101803.94;4995335;28;20350;-56
2022/01/06 07:38:34;;;;;;;23.65;9.63;;;;;;;-0.13;97.59;101803.72;4995391;28;20029;-56
2022/01/06 07:41:00;;;;;;;19.38;8.35;;;;;;;-0.13;97.19;101803.72;4996103;28;20373;-56
2022/01/06 07:43:25;;;;;;;22.40;9.40;;;;;;;-0.13;97.58;101801.00;4995965;28;20034;-56
2022/01/06 07:45:50;;;;;;;24.40;9.38;;;;;;;-0.14;97.22;101811.03;4995316;28;20041;-56
2022/01/06 07:48:19;;;;;;;20.70;9.50;;;;;;;-0.14;97.38;101811.03;4995324;28;20033;-56
2022/01/06 07:50:46;;;;;;;22.33;10.23;;;;;;;-0.14;97.19;101807.50;4995954;28;20038;-58
2022/01/06 07:53:11;;;;;;;20.55;9.45;;;;;;;-0.15;97.25;101817.53;4995397;28;20034;-56
2022/01/06 07:55:37;;;;;;;23.70;9.02;;;;;;;-0.14;97.38;101807.50;4995478;28;20385;-56
2022/01/06 07:58:03;;;;;;;23.15;8.95;;;;;;;-0.18;97.28;101809.78;4995746;28;20041;-56
2022/01/06 08:00:28;;;;;;;19.45;9.07;;;;;;;-0.19;97.28;101819.00;4995451;28;20112;-56
2022/01/06 08:02:54;;;;;;;22.08;9.40;;;;;;;-0.22;97.27;101819.41;4995136;28;20144;-56
2022/01/06 08:05:24;;;;;;;22.20;9.52;;;;;;;-0.32;97.09;101804.34;4994725;28;20121;-56
2022/01/06 08:07:49;;;;;;;26.17;9.52;;;;;;;-0.27;97.44;101822.75;4995712;28;20041;-56
2022/01/06 08:10:15;;;;;;;20.20;9.15;;;;;;;-0.28;97.72;101821.06;4995470;28;20026;-56
2022/01/06 08:12:41;;;;;;;22.98;9.25;;;;;;;-0.29;97.72;101816.72;4995160;28;20034;-56
2022/01/06 08:15:07;;;;;;;23.33;10.15;;;;;;;-0.28;97.73;101809.38;4995258;28;20038;-56
2022/01/06 08:17:33;;;;;;;24.55;9.60;;;;;;;-0.28;97.47;101810.19;4995118;28;20474;-56
2022/01/06 08:19:59;;;;;;;21.58;9.05;;;;;;;-0.27;98.01;101813.78;4995169;28;20137;-55
2022/01/06 08:22:24;;;;;;;22.38;9.35;;;;;;;-0.25;97.78;101817.94;4995386;28;20409;-57
2022/01/06 08:24:52;;;;;;;23.02;9.27;;;;;;;-0.23;97.47;101823.16;4995061;28;20030;-57
2022/01/06 08:27:18;;;;;;;26.23;9.10;;;;;;;-0.23;97.52;101824.03;4975517;28;20040;-57
2022/01/06 08:29:43;;;;;;;24.40;9.50;;;;;;;-0.23;97.53;101826.75;4973396;28;20041;-56
2022/01/06 08:32:09;;;;;;;23.95;9.27;;;;;;;-0.20;98.00;101831.78;4973320;28;20468;-56
2022/01/06 08:34:34;;;;;;;21.27;9.48;;;;;;;-0.17;97.60;101822.34;4972945;28;20031;-55
2022/01/06 08:37:00;;;;;;;26.75;10.70;;;;;;;-0.14;97.67;101823.81;4973357;28;20030;-55
2022/01/06 08:39:26;;;;;;;21.58;9.40;;;;;;;-0.17;97.71;101823.19;4973240;28;20026;-57
2022/01/06 08:41:52;;;;;;;21.80;9.90;;;;;;;-0.19;97.23;101819.81;4972072;28;20035;-55
2022/01/06 08:44:17;;;;;;;23.85;10.35;;;;;;;-0.14;97.62;101835.50;4972950;28;20077;-55
2022/01/06 08:46:43;;;;;;;26.08;11.07;;;;;;;-0.07;97.79;101828.22;4973114;28;20054;-56
2022/01/06 08:49:11;;;;;;;20.73;9.48;;;;;;;0.00;97.41;101839.09;4971627;28;20446;-56
2022/01/06 08:51:37;;;;;;;23.45;9.73;;;;;;;0.04;97.37;101834.88;4973154;28;20027;-56
2022/01/06 08:54:03;;;;;;;24.35;10.30;;;;;;;0.08;97.46;101847.03;4972823;28;20481;-55
2022/01/06 08:56:28;;;;;;;20.75;9.45;;;;;;;0.17;97.18;101844.09;4972531;28;20475;-55
2022/01/06 08:58:53;;;;;;;23.25;9.90;;;;;;;0.19;97.26;101842.00;4972904;28;20057;-55
2022/01/06 09:01:19;;;;;;;22.52;10.60;;;;;;;0.18;97.32;101849.31;4972569;28;20037;-55
2022/01/06 09:03:44;;;;;;;24.85;10.70;;;;;;;0.18;97.18;101848.47;4972645;28;20031;-55
2022/01/06 09:06:09;;;;;;;26.58;10.75;;;;;;;0.17;96.70;101858.50;4971010;28;20569;-55
2022/01/06 09:08:34;;;;;;;24.83;10.73;;;;;;;0.19;97.56;101859.16;4972607;28;20023;-56
2022/01/06 09:11:00;;;;;;;23.15;9.85;;;;;;;0.22;96.75;101855.16;4972333;28;20034;-54
2022/01/06 09:13:25;;;;;;;24.42;10.43;;;;;;;0.26;97.51;101857.25;4972009;28;20022;-56
2022/01/06 09:15:50;;;;;;;26.63;10.25;;;;;;;0.26;97.60;101859.97;4972846;28;20026;-55
2022/01/06 09:18:16;;;;;;;22.80;10.40;;;;;;;0.28;96.96;101866.03;4972313;28;20061;-56
2022/01/06 09:20:41;;;;;;;24.15;10.60;;;;;;;0.34;97.30;101871.66;4972385;28;20401;-55
2022/01/06 09:23:06;;;;;;;24.02;9.80;;;;;;;0.37;97.37;101871.25;4972576;28;20045;-56
2022/01/06 09:25:32;;;;;;;26.90;10.38;;;;;;;0.41;97.23;101875.25;4972353;28;20027;-55
2022/01/06 09:27:57;;;;;;;25.13;10.15;;;;;;;0.44;97.41;101872.94;4971072;28;20034;-55
2022/01/06 09:30:25;;;;;;;24.55;9.77;;;;;;;0.53;97.07;101876.25;4972431;28;20484;-56
2022/01/06 09:32:50;;;;;;;23.17;9.98;;;;;;;0.57;96.61;101882.09;4972693;28;20489;-55
2022/01/06 09:35:16;;;;;;;21.98;10.07;;;;;;;0.65;97.39;101883.75;4972246;28;20041;-57
2022/01/06 09:37:41;;;;;;;24.27;9.90;;;;;;;0.68;97.09;101880.63;4972468;28;20034;-55
2022/01/06 09:40:09;;;;;;;22.27;9.00;;;;;;;0.75;96.73;101886.88;4972339;28;20497;-55
2022/01/06 09:42:34;;;;;;;26.48;9.10;;;;;;;0.83;96.63;101894.81;4972219;28;20035;-55
2022/01/06 09:45:00;;;;;;;23.13;9.07;;;;;;;0.89;96.27;101893.09;4972165;28;20033;-56
2022/01/06 09:47:27;;;;;;;21.08;9.02;;;;;;;0.97;95.83;101894.75;4971966;28;20045;-55
2022/01/06 09:49:53;;;;;;;19.88;9.52;;;;;;;1.05;96.25;101894.50;4972472;28;20031;-57
2022/01/06 09:52:21;;;;;;;22.52;9.23;;;;;;;1.12;95.72;101894.50;4972971;28;20043;-56
2022/01/06 09:54:46;;;;;;;23.70;9.60;;;;;;;1.20;96.06;101897.78;4973052;28;20046;-56
2022/01/06 09:57:14;;;;;;;25.85;10.63;;;;;;;1.23;95.64;101896.50;4972047;28;20558;-56
2022/01/06 09:59:41;;;;;;;20.45;9.48;;;;;;;1.28;95.81;101904.88;4971955;28;20050;-55
2022/01/06 10:02:13;;;;;;;22.52;10.20;;;;;;;1.33;95.71;101902.31;4972108;28;20556;-56
2022/01/06 10:04:38;;;;;;;23.92;9.93;;;;;;;1.36;95.71;101898.34;4970501;28;20035;-57
2022/01/06 10:07:09;;;;;;;24.17;9.85;;;;;;;1.40;95.20;101896.84;4971781;28;20037;-54
2022/01/06 10:09:36;;;;;;;25.23;10.18;;;;;;;1.44;95.88;101894.50;4971980;28;20038;-56
2022/01/06 10:12:08;;;;;;;24.70;10.20;;;;;;;1.46;94.83;101892.41;4971153;28;20035;-55
2022/01/06 10:14:40;;;;;;;24.45;10.27;;;;;;;1.49;95.22;101900.16;4972205;28;20035;-55
2022/01/06 10:17:06;;;;;;;22.35;10.13;;;;;;;1.53;95.66;101895.94;4972082;28;20118;-54
2022/01/06 10:19:35;;;;;;;23.90;9.52;;;;;;;1.55;95.54;101891.09;4971988;28;20146;-54
2022/01/06 10:22:00;;;;;;;24.38;8.93;;;;;;;1.63;95.36;101888.09;4971812;28;20031;-54
2022/01/06 10:24:27;;;;;;;22.90;10.10;;;;;;;1.69;95.10;101886.38;4971818;28;20039;-54
2022/01/06 10:26:57;;;;;;;23.23;9.55;;;;;;;1.74;95.53;101885.72;4972070;28;20034;-54
2022/01/06 10:29:31;;;;;;;26.25;10.13;;;;;;;1.83;94.77;101885.25;4971477;28;20487;-53
2022/01/06 10:32:08;;;;;;;26.60;10.13;;;;;;;1.86;94.50;101879.31;4971658;28;20038;-54
2022/01/06 10:34:39;;;;;;;21.65;9.80;;;;;;;1.88;94.45;101879.13;4971768;28;20093;-55
2022/01/06 10:37:21;;;;;;;23.45;10.20;;;;;;;1.95;94.07;101877.16;4971728;28;20740;-55
2022/01/06 10:39:48;;;;;;;23.50;10.25;;;;;;;2.04;94.28;101880.44;4971868;28;20034;-55
2022/01/06 10:42:14;;;;;;;23.95;10.10;;;;;;;2.11;94.37;101878.50;4971710;28;20089;-56
2022/01/06 10:44:55;;;;;;;22.95;9.48;;;;;;;2.21;94.30;101877.16;4970080;28;20443;-56
2022/01/06 10:47:32;;;;;;;22.77;9.75;;;;;;;2.20;94.43;101859.91;4973618;28;20070;-55
2022/01/06 10:50:16;;;;;;;24.70;10.25;;;;;;;2.32;93.93;101877.25;4974949;28;20029;-56
2022/01/06 10:52:47;;;;;;;23.35;9.38;;;;;;;2.37;93.64;101864.78;4973894;28;20066;-56
2022/01/06 10:55:18;;;;;;;26.95;9.57;;;;;;;2.54;93.51;101884.16;4975070;28;20058;-55
2022/01/06 10:57:58;;;;;;;23.35;9.35;;;;;;;2.56;93.00;101869.22;4975110;28;20031;-55
2022/01/06 11:00:30;;;;;;;22.08;8.60;;;;;;;2.63;91.72;101859.06;4975181;28;20783;-55
2022/01/06 11:03:20;;;;;;;20.60;8.60;;;;;;;2.79;91.92;101864.97;4973836;28;20045;-55
2022/01/06 11:05:52;;;;;;;25.08;9.57;;;;;;;2.92;91.66;101877.63;4973267;28;20039;-56
2022/01/06 11:08:21;;;;;;;22.17;9.30;;;;;;;2.88;91.75;101863.59;4975216;28;20376;-56
2022/01/06 11:11:02;;;;;;;22.70;9.07;;;;;;;3.02;92.50;101868.91;4975181;28;20493;-56
2022/01/06 11:13:32;;;;;;;23.38;8.95;;;;;;;3.08;91.21;101865.25;4975264;28;20063;-56
2022/01/06 11:15:58;;;;;;;21.60;8.90;;;;;;;3.18;90.60;101870.16;4974784;28;20033;-56
2022/01/06 11:18:23;;;;;;;22.92;8.98;;;;;;;3.20;90.58;101874.34;4974690;28;20422;-55
2022/01/06 11:20:51;;;;;;;24.20;9.95;;;;;;;3.16;90.52;101858.63;4974248;28;20038;-56
2022/01/06 11:23:21;;;;;;;22.67;7.88;;;;;;;3.20;90.27;101857.94;4974590;28;20019;-56
2022/01/06 11:25:46;;;;;;;22.38;8.80;;;;;;;3.24;90.89;101861.03;4974633;28;20039;-56
2022/01/06 11:28:12;;;;;;;24.45;8.48;;;;;;;3.25;90.08;101866.28;4974592;28;20065;-56